Upstream stations:
Downstream station:
SHEF ID: BFFO2 Cimarron River near Buffalo, OK
STATION TYPE:
Regulating: Stage = 6.00, Flow = 750
PRECIP STAGE RIV-FLOW BAT-LOAD
in ft cfs volt
Ccp-Rev Ccp-Rev Ccp-Rev Ccp-Rev
(US/Central)
01/07 00:00 0.00 3.12 6 12.65
01/07 01:00 0.00 3.09 5 12.57
01/07 02:00 0.00 3.10 5 12.57
01/07 03:00 0.00 3.08 4 12.49
01/07 04:00 0.00 3.02 3 12.41
01/07 05:00 0.00 3.00 2 12.41
01/07 06:00 0.00 2.99 2 12.41
01/07 07:00 0.00 3.18 9 12.33
01/07 08:00 0.00 3.23 11 12.33
01/07 09:00 0.00 3.23 11 12.65
01/07 10:00 0.00 3.25 13 13.44
01/07 11:00 0.00 3.25 13 13.53
01/07 12:00 0.00 3.23 11 13.68
01/07 13:00 0.00 3.13 6 13.53
01/07 14:00 0.00 3.09 5 13.68
01/07 15:00 0.00 3.11 5 13.60
01/07 16:00 0.00 3.12 6 13.53
01/07 17:00 0.00 3.15 7 13.44
01/07 18:00 0.00 3.17 8 13.29
01/07 19:00 0.00 3.17 8 12.97
01/07 20:00 0.00 3.17 8 12.81
01/07 21:00 0.00 3.17 8 12.73
01/07 22:00 0.00 3.16 8 12.73
01/07 23:00 0.00 3.17 8 12.65